Time;durP1;ratioP1;P1;durP2;ratioP2;P2;SDS_P1;SDS_P2;PMS_P1;PMS_P2;Temp;Humidity;BMP_temperature;BMP_pressure;BME280_temperature;BME280_humidity;BME280_pressure;Samples;Min_cycle;Max_cycle;Signal;HPM_P1;HPM_P2
2021/07/23 04:31:04;;;;;;;696.60;665.37;;;11.80;99.90;;;;;;5841055;24;20435;-80
2021/07/23 05:43:15;;;;;;;84.03;77.50;;;15.00;99.90;;;;;;5868642;24;20518;-83
2021/07/23 05:45:42;;;;;;;63.53;54.60;;;15.40;96.40;;;;;;5899172;24;20443;-90
2021/07/23 05:48:09;;;;;;;44.30;24.93;;;15.50;93.20;;;;;;5981234;24;20451;-82
2021/07/23 05:50:36;;;;;;;43.53;20.87;;;15.70;85.20;;;;;;5993075;24;20509;-81
2021/07/23 05:53:04;;;;;;;41.30;15.63;;;16.00;82.90;;;;;;5981851;24;20498;-78
2021/07/23 05:55:31;;;;;;;39.50;11.80;;;16.20;77.80;;;;;;6001812;23;20487;-79
2021/07/23 05:57:58;;;;;;;40.50;12.57;;;16.20;68.70;;;;;;6069151;23;20412;-84
2021/07/23 06:00:26;;;;;;;41.67;9.53;;;16.40;66.80;;;;;;6077312;23;20419;-80
2021/07/23 06:02:52;;;;;;;43.37;12.87;;;16.50;66.90;;;;;;6078755;23;20419;-83
2021/07/23 06:05:19;;;;;;;38.90;7.97;;;16.70;66.60;;;;;;6079153;23;20440;-86
2021/07/23 06:07:46;;;;;;;44.03;9.27;;;16.70;60.80;;;;;;6069197;23;20885;-81
2021/07/23 06:10:14;;;;;;;45.40;9.30;;;16.80;61.30;;;;;;6069809;23;20444;-82
2021/07/23 06:12:41;;;;;;;44.13;9.20;;;17.00;61.40;;;;;;6070106;23;20403;-86
2021/07/23 06:15:09;;;;;;;40.20;8.53;;;17.20;59.80;;;;;;6081366;23;20440;-85
2021/07/23 06:17:36;;;;;;;43.83;7.70;;;17.10;55.50;;;;;;6083730;23;20716;-83
2021/07/23 06:20:03;;;;;;;44.73;9.83;;;17.40;55.90;;;;;;6079073;23;20496;-86
2021/07/23 06:22:30;;;;;;;46.53;9.50;;;17.50;55.70;;;;;;6078877;23;20487;-84
2021/07/23 06:24:58;;;;;;;43.23;9.17;;;17.60;52.80;;;;;;6069355;23;20400;-80
2021/07/23 06:27:26;;;;;;;51.57;10.70;;;17.70;53.30;;;;;;6069379;23;20945;-80
2021/07/23 06:29:55;;;;;;;44.10;10.40;;;17.80;51.20;;;;;;6067691;23;20480;-81
2021/07/23 06:32:23;;;;;;;48.53;10.77;;;17.90;49.80;;;;;;6069287;23;20404;-87
2021/07/23 06:34:50;;;;;;;49.10;8.90;;;18.00;48.90;;;;;;6112438;23;20450;-79
2021/07/23 06:37:21;;;;;;;46.53;9.50;;;18.10;49.90;;;;;;6127245;23;20403;-77
2021/07/23 06:39:48;;;;;;;45.77;8.70;;;18.20;47.60;;;;;;6126826;23;20403;-81
2021/07/23 06:42:15;;;;;;;50.97;9.70;;;18.40;47.20;;;;;;6127021;23;20403;-82
2021/07/23 06:44:43;;;;;;;44.93;9.93;;;18.70;45.70;;;;;;6125162;23;20992;-79
2021/07/23 06:47:10;;;;;;;53.00;8.80;;;18.70;45.50;;;;;;6126712;23;20986;-86
2021/07/23 06:49:37;;;;;;;54.67;10.77;;;19.00;47.10;;;;;;6126666;23;20395;-78
2021/07/23 06:52:05;;;;;;;48.87;10.37;;;19.30;43.70;;;;;;6126109;23;20398;-81
2021/07/23 06:54:31;;;;;;;52.27;12.00;;;19.40;41.20;;;;;;6126390;23;20434;-83
2021/07/23 06:57:01;;;;;;;56.60;19.00;;;19.60;34.10;;;;;;6126463;23;20402;-77
2021/07/23 06:59:28;;;;;;;54.90;17.67;;;19.80;35.10;;;;;;6121690;23;20403;-84
2021/07/23 07:01:56;;;;;;;51.17;13.23;;;19.90;32.20;;;;;;6124996;23;20403;-78
2021/07/23 07:04:22;;;;;;;59.83;13.20;;;19.80;31.50;;;;;;6124587;23;20411;-85
2021/07/23 07:06:49;;;;;;;49.07;15.67;;;19.90;31.10;;;;;;6124740;23;20974;-81
2021/07/23 07:09:16;;;;;;;53.20;14.80;;;19.80;29.00;;;;;;6135164;23;20505;-80
2021/07/23 09:10:26;;;;;;;45.30;9.30;;;24.00;11.00;;;;;;5584447;25;20411;-83
2021/07/23 09:12:54;;;;;;;41.63;7.20;;;23.80;8.90;;;;;;5786969;23;20189;-80
2021/07/23 09:15:27;;;;;;;41.17;8.10;;;24.00;11.20;;;;;;5982098;23;20457;-81
2021/07/23 09:17:54;;;;;;;43.83;7.30;;;24.10;10.30;;;;;;6080292;23;20740;-76
2021/07/23 09:20:23;;;;;;;42.67;7.50;;;24.40;8.50;;;;;;6098219;23;20547;-76
2021/07/23 09:22:51;;;;;;;41.40;7.17;;;24.10;8.20;;;;;;6098249;23;20406;-76
2021/07/23 09:25:36;;;;;;;39.63;6.97;;;24.30;9.40;;;;;;6098471;23;20404;-77
2021/07/23 09:28:03;;;;;;;40.97;6.77;;;24.20;8.00;;;;;;6108016;23;20443;-82
2021/07/23 09:30:43;;;;;;;42.03;8.30;;;24.30;7.30;;;;;;6097087;23;20406;-84
2021/07/23 09:33:10;;;;;;;43.20;7.67;;;24.20;7.60;;;;;;6098250;23;20412;-80
2021/07/23 09:35:37;;;;;;;44.13;7.90;;;24.60;8.40;;;;;;6098353;23;20442;-74
2021/07/23 09:38:04;;;;;;;37.97;6.80;;;24.80;7.30;;;;;;6102372;23;20446;-77
2021/07/23 09:40:43;;;;;;;43.43;7.33;;;24.80;6.30;;;;;;6127801;23;20403;-75
2021/07/23 09:43:10;;;;;;;40.00;7.23;;;25.80;4.60;;;;;;6127626;23;20521;-75
2021/07/23 09:45:37;;;;;;;40.97;7.27;;;25.70;4.50;;;;;;6125838;23;20891;-79
2021/07/23 09:48:12;;;;;;;40.70;8.17;;;24.90;5.40;;;;;;6127311;23;20907;-77
2021/07/23 09:50:43;;;;;;;40.20;8.43;;;24.70;4.10;;;;;;6127709;23;20398;-81
2021/07/23 09:53:10;;;;;;;43.37;7.53;;;24.80;5.80;;;;;;6127828;23;20403;-85
2021/07/23 09:55:37;;;;;;;41.03;7.00;;;24.60;6.00;;;;;;6127522;23;20469;-76
2021/07/23 09:58:07;;;;;;;40.77;7.07;;;25.00;5.30;;;;;;6127305;23;20402;-80
2021/07/23 10:00:38;;;;;;;47.10;7.07;;;25.80;4.00;;;;;;6123102;23;20410;-76
2021/07/23 10:03:08;;;;;;;45.30;6.70;;;25.90;3.70;;;;;;6126425;23;20403;-79
2021/07/23 10:05:39;;;;;;;41.90;6.43;;;26.00;1.00;;;;;;6126808;23;20429;-81
2021/07/23 10:08:11;;;;;;;44.00;7.03;;;25.90;1.00;;;;;;6126497;23;20413;-76
2021/07/23 10:10:39;;;;;;;44.70;6.90;;;26.10;2.40;;;;;;6126259;23;20898;-81
2021/07/23 10:13:08;;;;;;;45.43;7.83;;;26.70;1.20;;;;;;6126599;23;20410;-77
2021/07/23 10:15:37;;;;;;;46.10;7.67;;;26.70;1.00;;;;;;6124831;23;20461;-81
2021/07/23 10:18:06;;;;;;;47.67;8.67;;;26.30;1.00;;;;;;6136290;23;20794;-75
2021/07/23 10:20:33;;;;;;;44.80;7.53;;;26.00;1.00;;;;;;6126697;23;20426;-79
2021/07/23 10:23:00;;;;;;;44.50;7.37;;;26.00;1.00;;;;;;6126478;23;20498;-79
2021/07/23 10:25:27;;;;;;;45.20;7.10;;;26.40;1.00;;;;;;6126852;23;20409;-76
2021/07/23 10:27:54;;;;;;;44.17;7.63;;;26.70;1.00;;;;;;6136196;23;20739;-82
2021/07/23 10:30:33;;;;;;;44.27;6.43;;;26.50;1.00;;;;;;6134188;23;20479;-80
2021/07/23 10:33:01;;;;;;;45.30;7.07;;;26.60;1.00;;;;;;6126566;23;20513;-80
2021/07/23 10:35:32;;;;;;;49.00;8.00;;;27.60;1.00;;;;;;6126627;23;20466;-78
2021/07/23 10:38:01;;;;;;;48.70;8.00;;;27.70;1.00;;;;;;6125377;23;20486;-80
2021/07/23 10:40:40;;;;;;;48.90;7.57;;;28.10;1.00;;;;;;6126426;23;20403;-86
2021/07/23 10:43:33;;;;;;;48.40;8.10;;;28.40;1.00;;;;;;6126328;23;20435;-77
2021/07/23 10:46:01;;;;;;;50.20;9.27;;;28.10;1.00;;;;;;6125866;23;20772;-75
2021/07/23 10:48:46;;;;;;;50.80;8.67;;;28.20;1.00;;;;;;6126201;23;20425;-75
2021/07/23 10:51:46;;;;;;;49.97;9.00;;;28.10;1.00;;;;;;6126074;23;20403;-75
2021/07/23 10:54:13;;;;;;;48.87;7.20;;;27.90;1.00;;;;;;6125982;23;20407;-84
2021/07/23 10:57:15;;;;;;;46.43;10.53;;;28.00;1.00;;;;;;6126554;23;20449;-84
2021/07/23 10:59:51;;;;;;;51.47;7.97;;;27.40;1.00;;;;;;6124747;23;20403;-74
2021/07/23 11:02:43;;;;;;;50.07;7.70;;;27.80;1.00;;;;;;6126659;23;20409;-75
2021/07/23 11:05:11;;;;;;;47.70;8.13;;;27.90;1.00;;;;;;6126470;23;20932;-79
2021/07/23 11:07:38;;;;;;;47.87;7.67;;;28.60;1.00;;;;;;6126936;23;20398;-84
2021/07/23 11:10:08;;;;;;;49.97;8.97;;;28.40;1.00;;;;;;6136307;23;20410;-75
2021/07/23 11:12:40;;;;;;;48.73;7.83;;;28.50;1.00;;;;;;6126838;23;20398;-75
2021/07/23 11:15:08;;;;;;;50.43;8.17;;;30.40;1.00;;;;;;6124931;23;20430;-75
2021/07/23 11:17:50;;;;;;;48.97;7.90;;;30.60;1.00;;;;;;6127102;23;20414;-81
2021/07/23 11:20:23;;;;;;;50.93;8.43;;;29.60;1.00;;;;;;6136322;23;20509;-78
2021/07/23 11:22:51;;;;;;;55.63;8.90;;;29.50;1.00;;;;;;6136270;23;20950;-80
2021/07/23 11:25:19;;;;;;;49.77;11.57;;;28.30;1.00;;;;;;6126907;23;20462;-81
2021/07/23 11:27:50;;;;;;;54.03;9.40;;;27.70;1.00;;;;;;6126951;23;20416;-82
2021/07/23 11:30:20;;;;;;;52.40;10.33;;;27.40;1.00;;;;;;6124705;23;20409;-79
2021/07/23 11:32:54;;;;;;;48.27;7.70;;;27.70;1.00;;;;;;6126840;23;20439;-80
2021/07/23 11:35:22;;;;;;;47.90;8.30;;;28.50;1.00;;;;;;6126653;23;20442;-78
2021/07/23 11:37:49;;;;;;;46.20;6.77;;;30.10;1.00;;;;;;6126463;23;20709;-81
2021/07/23 11:47:57;;;;;;;53.23;9.03;;;30.30;1.00;;;;;;6124615;23;20415;-81
2021/07/23 11:50:25;;;;;;;50.67;10.87;;;30.50;1.00;;;;;;6126568;23;20446;-81
2021/07/23 11:53:00;;;;;;;51.53;7.77;;;30.10;1.00;;;;;;6126530;23;20403;-85
2021/07/23 11:55:39;;;;;;;51.80;9.20;;;30.30;1.00;;;;;;6126267;23;20481;-83
2021/07/23 11:58:06;;;;;;;52.07;7.53;;;30.60;1.00;;;;;;6126565;23;20768;-79
2021/07/23 12:00:34;;;;;;;52.70;8.40;;;30.70;1.00;;;;;;6134739;23;20446;-80
2021/07/23 12:03:17;;;;;;;51.10;7.40;;;30.70;1.00;;;;;;6126602;23;20719;-83
2021/07/23 12:05:44;;;;;;;51.80;9.67;;;30.60;1.00;;;;;;6126428;23;20435;-83
2021/07/23 12:08:11;;;;;;;51.17;8.10;;;30.20;1.00;;;;;;6136201;23;20441;-80
2021/07/23 12:10:38;;;;;;;52.80;10.80;;;30.30;1.00;;;;;;6126326;23;20406;-79
2021/07/23 12:13:06;;;;;;;51.40;8.00;;;30.50;1.00;;;;;;6126372;23;20462;-80
2021/07/23 12:15:40;;;;;;;53.17;8.73;;;31.60;1.00;;;;;;6124939;23;22279;-80
2021/07/23 12:18:09;;;;;;;50.90;7.90;;;32.00;1.00;;;;;;6125773;23;20485;-79
2021/07/23 12:20:37;;;;;;;51.70;8.33;;;32.80;1.00;;;;;;6126387;23;20754;-80
2021/07/23 12:23:10;;;;;;;53.03;9.50;;;33.00;1.00;;;;;;6136044;23;20470;-80
2021/07/23 12:25:52;;;;;;;54.70;8.70;;;31.50;1.00;;;;;;6126450;23;20458;-80
2021/07/23 12:28:19;;;;;;;54.10;8.90;;;31.40;1.00;;;;;;6135621;23;20906;-80
2021/07/23 12:30:50;;;;;;;51.80;9.90;;;31.20;1.00;;;;;;6134781;23;20781;-81
2021/07/23 12:41:36;;;;;;;52.07;10.30;;;32.60;1.00;;;;;;6119994;23;20458;-79
2021/07/23 12:44:05;;;;;;;52.23;9.23;;;30.80;1.00;;;;;;6126744;23;20466;-77
2021/07/23 12:46:32;;;;;;;53.07;8.90;;;31.40;1.00;;;;;;6128184;23;20414;-90
2021/07/23 12:49:12;;;;;;;51.73;8.50;;;32.10;1.00;;;;;;6128228;23;20819;-85
2021/07/23 12:51:39;;;;;;;49.57;7.20;;;31.90;1.00;;;;;;6128150;23;20481;-83
2021/07/23 12:54:06;;;;;;;51.47;9.17;;;32.00;1.00;;;;;;6128058;23;20783;-80
2021/07/23 12:56:35;;;;;;;59.03;10.67;;;31.40;1.00;;;;;;6128127;23;20825;-79
2021/07/23 12:59:24;;;;;;;52.90;7.67;;;31.50;1.00;;;;;;6126695;23;20445;-80
2021/07/23 13:01:51;;;;;;;51.30;8.73;;;33.10;1.00;;;;;;6128054;23;20402;-80
2021/07/23 13:04:18;;;;;;;53.03;12.70;;;33.00;1.00;;;;;;6127573;23;20403;-85
2021/07/23 13:06:45;;;;;;;54.80;10.33;;;31.50;1.00;;;;;;6128139;23;20437;-83
2021/07/23 13:09:12;;;;;;;52.97;9.30;;;31.40;1.00;;;;;;6127824;23;20406;-80
2021/07/23 13:11:39;;;;;;;53.00;8.10;;;31.00;1.00;;;;;;6127816;23;20433;-81
2021/07/23 13:14:07;;;;;;;53.93;12.10;;;30.60;1.00;;;;;;6126362;23;20377;-80
2021/07/23 13:16:34;;;;;;;51.77;8.57;;;29.80;1.00;;;;;;6127737;23;20512;-79
2021/07/23 13:19:01;;;;;;;49.60;7.77;;;30.20;1.00;;;;;;6127894;23;20449;-82
2021/07/23 15:00:32;;;;;;;52.50;6.63;;;34.40;1.00;;;;;;6135861;23;20917;-86
2021/07/23 15:02:59;;;;;;;56.47;7.33;;;33.80;1.00;;;;;;6156388;23;20484;-84
2021/07/23 15:05:26;;;;;;;53.60;8.07;;;33.50;1.00;;;;;;6156401;23;20377;-84
2021/07/23 15:07:53;;;;;;;55.50;10.13;;;34.40;1.00;;;;;;6156240;23;20778;-83
2021/07/23 15:10:20;;;;;;;52.60;7.47;;;34.20;1.00;;;;;;6156355;23;20774;-83
2021/07/23 15:12:49;;;;;;;53.30;6.90;;;33.90;1.00;;;;;;6156333;23;20435;-84
2021/07/23 15:15:22;;;;;;;55.07;8.03;;;33.70;1.00;;;;;;6155002;23;20461;-86
2021/07/23 15:17:52;;;;;;;53.83;6.60;;;33.80;1.00;;;;;;6165877;23;20842;-83
2021/07/23 15:20:21;;;;;;;54.07;7.10;;;33.30;1.00;;;;;;6166243;23;20388;-83
2021/07/23 15:22:48;;;;;;;54.90;7.97;;;33.70;1.00;;;;;;6156302;23;20377;-84
2021/07/23 15:25:16;;;;;;;57.83;7.53;;;34.00;1.00;;;;;;6166291;23;20448;-84
2021/07/23 15:27:45;;;;;;;54.17;7.20;;;35.30;1.00;;;;;;6166172;23;20457;-84
2021/07/23 15:30:21;;;;;;;57.30;10.80;;;35.20;1.00;;;;;;6154540;23;20377;-83
2021/07/23 15:32:51;;;;;;;54.47;9.30;;;34.10;1.00;;;;;;6166148;23;20413;-85
2021/07/23 15:35:17;;;;;;;55.30;9.33;;;33.30;1.00;;;;;;6166078;23;20421;-83
2021/07/23 15:37:44;;;;;;;55.67;9.50;;;33.00;1.00;;;;;;6156138;23;20757;-83
2021/07/23 15:40:12;;;;;;;53.90;8.10;;;33.60;1.00;;;;;;6155682;23;20489;-84
2021/07/23 15:42:40;;;;;;;53.53;7.63;;;33.40;1.00;;;;;;6165827;23;20513;-85
2021/07/23 15:45:07;;;;;;;53.93;7.57;;;33.30;1.00;;;;;;6154402;23;20376;-82
2021/07/23 15:47:38;;;;;;;56.07;7.87;;;33.10;1.00;;;;;;6155660;23;20398;-77
2021/07/23 15:50:08;;;;;;;53.97;7.53;;;33.30;1.00;;;;;;6155747;23;20459;-74
2021/07/23 15:52:35;;;;;;;55.67;9.13;;;33.50;1.00;;;;;;6156057;23;20408;-77
2021/07/23 15:55:02;;;;;;;57.10;10.13;;;33.50;1.00;;;;;;6156057;23;20490;-76
2021/07/23 15:57:29;;;;;;;53.37;9.43;;;33.30;1.00;;;;;;6155729;23;20456;-75
2021/07/23 15:59:55;;;;;;;54.50;9.53;;;32.80;1.00;;;;;;6154417;23;20398;-76
2021/07/23 16:02:22;;;;;;;53.20;7.37;;;32.30;1.00;;;;;;6181295;23;20418;-79
2021/07/23 16:04:49;;;;;;;53.30;11.47;;;32.90;1.00;;;;;;6185352;23;20950;-76
2021/07/23 16:07:17;;;;;;;59.27;10.83;;;31.30;1.00;;;;;;6185097;23;20383;-75
2021/07/23 16:09:44;;;;;;;56.90;9.70;;;31.00;1.00;;;;;;6185081;23;20458;-74
2021/07/23 16:12:11;;;;;;;56.30;10.83;;;30.60;1.00;;;;;;6184538;23;20504;-76
2021/07/23 16:14:38;;;;;;;53.90;10.63;;;30.30;1.00;;;;;;6183650;23;20397;-75
2021/07/23 16:17:06;;;;;;;55.53;9.30;;;30.20;1.00;;;;;;6184746;23;20751;-77
2021/07/23 16:19:32;;;;;;;51.10;7.60;;;30.20;1.00;;;;;;6185099;23;20891;-75
2021/07/23 16:21:59;;;;;;;51.50;7.20;;;30.20;1.00;;;;;;6185584;23;20407;-77
2021/07/23 16:24:27;;;;;;;53.40;6.93;;;30.80;1.00;;;;;;6185456;23;20689;-77
2021/07/23 16:26:54;;;;;;;55.90;8.30;;;31.80;1.00;;;;;;6185611;23;20397;-76
2021/07/23 16:29:21;;;;;;;53.10;9.80;;;31.90;1.00;;;;;;6184124;23;20731;-76
2021/07/23 16:31:48;;;;;;;51.90;7.60;;;31.40;1.00;;;;;;6195428;23;20408;-80
2021/07/23 16:34:14;;;;;;;52.37;7.30;;;31.70;1.00;;;;;;6185517;23;20492;-76
2021/07/23 16:36:41;;;;;;;55.87;7.60;;;31.90;1.00;;;;;;6185362;23;20400;-80
2021/07/23 16:39:08;;;;;;;50.83;6.97;;;31.90;1.00;;;;;;6185279;23;20376;-77
2021/07/23 16:41:36;;;;;;;53.07;9.27;;;31.50;1.00;;;;;;6185116;23;20433;-76
2021/07/23 16:44:03;;;;;;;52.10;9.40;;;31.90;1.00;;;;;;6184015;23;20409;-77
2021/07/23 16:46:30;;;;;;;56.33;9.77;;;31.40;1.00;;;;;;6194991;23;20439;-76
2021/07/23 16:48:58;;;;;;;51.60;7.30;;;30.90;1.00;;;;;;6185058;23;20463;-77
2021/07/23 16:51:25;;;;;;;54.63;10.40;;;31.20;1.00;;;;;;6185446;23;20401;-76
2021/07/23 16:53:52;;;;;;;50.57;7.13;;;31.30;1.00;;;;;;6185453;23;20780;-75
2021/07/23 16:56:18;;;;;;;52.40;8.30;;;31.50;1.00;;;;;;6185052;23;20885;-76
2021/07/23 16:58:46;;;;;;;53.60;7.90;;;31.20;1.00;;;;;;6183641;23;20401;-76
2021/07/23 17:01:13;;;;;;;52.07;7.73;;;31.20;1.00;;;;;;6182664;23;20519;-76
2021/07/23 17:03:40;;;;;;;52.73;8.47;;;31.40;1.00;;;;;;6183739;23;20397;-76
2021/07/23 17:06:07;;;;;;;57.97;10.00;;;31.60;1.00;;;;;;6183766;23;20820;-76
2021/07/23 17:08:34;;;;;;;52.47;7.67;;;32.10;1.00;;;;;;6183284;23;20734;-77
2021/07/23 17:11:00;;;;;;;52.40;9.90;;;31.50;1.00;;;;;;6183699;23;20827;-77
2021/07/23 17:13:27;;;;;;;52.03;8.77;;;31.90;1.00;;;;;;6183196;23;20483;-78
2021/07/23 17:15:56;;;;;;;55.80;8.70;;;31.20;1.00;;;;;;6192604;23;20484;-76
2021/07/23 17:18:23;;;;;;;52.10;7.77;;;30.90;1.00;;;;;;6183375;23;20455;-77
2021/07/23 17:20:50;;;;;;;50.70;7.63;;;30.80;1.00;;;;;;6184214;23;20405;-79
2021/07/23 17:23:18;;;;;;;49.70;7.10;;;31.10;1.00;;;;;;6185544;23;20452;-77
2021/07/23 17:25:45;;;;;;;52.73;9.87;;;31.00;1.00;;;;;;6186121;23;20877;-76
2021/07/23 17:28:12;;;;;;;51.30;8.43;;;30.30;1.00;;;;;;6185345;23;20397;-77
2021/07/23 17:30:39;;;;;;;51.40;8.40;;;30.40;1.00;;;;;;6194194;23;20405;-76
2021/07/23 17:33:07;;;;;;;48.70;6.33;;;30.20;1.00;;;;;;6185833;23;20483;-76
2021/07/23 17:35:34;;;;;;;48.60;7.23;;;30.80;1.00;;;;;;6185616;23;20772;-75
2021/07/23 17:38:01;;;;;;;50.57;6.67;;;30.40;1.00;;;;;;6185527;23;20823;-75
2021/07/23 17:40:28;;;;;;;54.77;7.40;;;30.80;1.00;;;;;;6185697;23;20407;-77
2021/07/23 17:42:56;;;;;;;48.77;6.50;;;30.90;1.00;;;;;;6185226;23;20405;-76
2021/07/23 17:45:24;;;;;;;47.20;6.00;;;30.90;1.00;;;;;;6193914;23;20438;-77
2021/07/23 17:47:53;;;;;;;54.97;7.60;;;30.80;1.00;;;;;;6185407;23;20464;-76
2021/07/23 17:50:22;;;;;;;48.97;6.67;;;30.70;1.00;;;;;;6186275;23;20430;-75
2021/07/23 17:52:49;;;;;;;50.30;8.10;;;30.30;1.00;;;;;;6186718;23;20401;-76
2021/07/23 17:55:15;;;;;;;53.37;7.33;;;29.40;1.00;;;;;;6186543;23;20492;-75
2021/07/23 17:57:44;;;;;;;53.67;7.83;;;28.70;1.00;;;;;;6186946;23;20425;-75
2021/07/23 18:00:13;;;;;;;50.97;6.83;;;27.90;1.00;;;;;;6195647;23;20416;-75
2021/07/23 18:02:53;;;;;;;51.27;7.63;;;27.20;1.00;;;;;;6186418;23;20767;-75
2021/07/23 18:05:23;;;;;;;48.77;7.03;;;26.60;1.00;;;;;;6196934;23;20893;-74
2021/07/23 18:07:51;;;;;;;49.60;8.37;;;26.20;1.00;;;;;;6186431;23;20405;-74
2021/07/23 18:10:21;;;;;;;47.47;6.80;;;25.80;1.00;;;;;;6187319;23;20387;-75
2021/07/23 18:12:48;;;;;;;46.10;6.50;;;25.60;1.00;;;;;;6186830;23;20404;-75
2021/07/23 18:15:15;;;;;;;47.50;7.10;;;25.30;1.00;;;;;;6195188;23;20391;-75
2021/07/23 18:17:42;;;;;;;46.60;7.23;;;25.00;1.00;;;;;;6186926;23;20519;-77
2021/07/23 18:20:10;;;;;;;50.53;6.50;;;24.80;1.00;;;;;;6186741;23;20407;-75
2021/07/23 18:22:41;;;;;;;45.83;7.17;;;24.80;1.00;;;;;;6186752;23;20407;-75
2021/07/23 18:25:09;;;;;;;45.90;6.17;;;24.60;1.00;;;;;;6196165;23;20415;-76
2021/07/23 18:27:36;;;;;;;44.63;7.17;;;24.40;2.20;;;;;;6186359;23;20460;-75
2021/07/23 18:30:03;;;;;;;60.57;7.60;;;24.20;1.80;;;;;;6194429;23;20412;-75
2021/07/23 18:32:30;;;;;;;43.07;6.50;;;23.90;3.30;;;;;;6186118;23;20401;-76
2021/07/23 18:34:58;;;;;;;42.90;6.77;;;23.70;3.90;;;;;;6186536;23;20408;-76
2021/07/23 18:37:41;;;;;;;;;;;;;;;;;;;;;
2021/07/23 18:40:12;;;;;;;45.10;7.13;;;23.30;4.90;;;;;;6196526;23;21009;-81
2021/07/23 18:43:18;;;;;;;;;;;;;;;;;;;;;
2021/07/23 18:49:24;;;;;;;39.37;6.47;;;22.90;5.90;;;;;;6008302;23;20423;-81
2021/07/23 18:55:31;;;;;;;;;;;;;;;;;;;;;
2021/07/23 19:02:10;;;;;;;36.67;6.10;;;22.40;7.20;;;;;;6008892;23;20438;-84
2021/07/23 19:04:41;;;;;;;39.43;6.80;;;22.20;8.80;;;;;;6020389;23;20426;-81
2021/07/23 19:07:11;;;;;;;37.30;6.67;;;22.00;9.70;;;;;;6093848;23;20413;-82
2021/07/23 19:10:27;;;;;;;;;;;;;;;;;;;;;
2021/07/23 19:13:02;;;;;;;37.50;6.87;;;21.80;10.70;;;;;;5971008;23;20504;-85
2021/07/23 19:15:33;;;;;;;41.87;6.83;;;21.60;10.60;;;;;;6186988;23;20451;-85
2021/07/23 19:18:01;;;;;;;38.27;6.53;;;21.50;11.90;;;;;;6189260;23;20429;-83
2021/07/23 19:20:49;;;;;;;38.60;7.27;;;21.20;14.40;;;;;;6191489;23;20889;-85
2021/07/23 19:23:48;;;;;;;;;;;;;;;;;;;;;
2021/07/23 19:26:19;;;;;;;38.23;6.50;;;20.90;16.00;;;;;;6012866;23;20385;-85
2021/07/23 19:29:32;;;;;;;;;;;;;;;;;;;;;
2021/07/23 19:32:26;;;;;;;36.90;6.73;;;20.30;16.70;;;;;;6104088;23;21019;-80
2021/07/23 19:38:54;;;;;;;37.73;7.40;;;20.10;19.00;;;;;;5893876;24;20453;-81
2021/07/23 19:50:12;;;;;;;37.13;7.90;;;19.70;20.10;;;;;;6126782;23;20412;-79
2021/07/23 19:52:44;;;;;;;35.30;7.50;;;19.60;21.30;;;;;;6185396;23;20408;-81
2021/07/23 19:55:11;;;;;;;35.73;8.00;;;19.50;21.00;;;;;;6185439;23;20405;-79
2021/07/23 19:57:44;;;;;;;37.20;9.47;;;19.50;21.60;;;;;;6185564;23;20425;-79
2021/07/23 20:00:12;;;;;;;38.67;10.07;;;19.40;21.50;;;;;;6184185;23;20393;-82
2021/07/23 20:02:39;;;;;;;38.37;10.17;;;19.40;21.80;;;;;;6195540;23;20428;-84
2021/07/23 20:05:08;;;;;;;38.00;9.90;;;19.30;22.20;;;;;;6185581;23;20467;-82
2021/07/23 20:07:37;;;;;;;46.63;10.57;;;19.20;21.90;;;;;;6143319;23;20423;-85
2021/07/23 20:10:04;;;;;;;39.90;10.13;;;19.20;22.20;;;;;;6185100;23;20397;-85
2021/07/23 20:12:31;;;;;;;38.40;9.40;;;19.00;22.70;;;;;;6185044;23;20397;-84
2021/07/23 20:15:03;;;;;;;37.43;8.90;;;18.90;23.30;;;;;;6163966;23;20379;-86
2021/07/23 20:17:30;;;;;;;38.90;7.60;;;18.90;23.70;;;;;;6155151;23;20414;-83
2021/07/23 20:20:01;;;;;;;39.40;8.07;;;18.70;24.60;;;;;;6155348;23;20402;-83
2021/07/23 20:22:53;;;;;;;40.20;9.10;;;18.60;25.00;;;;;;6154823;23;20934;-84
2021/07/23 20:25:20;;;;;;;43.13;8.37;;;18.50;25.30;;;;;;6056046;23;20417;-80
2021/07/23 20:27:47;;;;;;;48.80;9.40;;;18.50;25.30;;;;;;6165380;23;20420;-78
2021/07/23 20:30:49;;;;;;;49.63;8.60;;;18.40;25.20;;;;;;6153879;23;20909;-85
2021/07/23 20:33:17;;;;;;;39.77;6.20;;;18.40;25.90;;;;;;6153305;23;20415;-80
2021/07/23 20:35:44;;;;;;;39.50;6.33;;;18.30;24.70;;;;;;6155388;23;20932;-80
2021/07/23 20:38:13;;;;;;;39.17;5.50;;;18.30;25.30;;;;;;6165221;23;21023;-80
